• Join FlightAware (Why Join?)
  • Login
  • US Flag 
10:45PM EDT


 

Airport Tracker/Info


-or-


 

Live Flight TrackerFlight Track Log ✈ DAL6225 ✈ 30-Apr-2013 ✈ KMSN - KLGA

Flight Track Log - Related Links

Times and Time Zones

All times are in EDT time to prevent confusion due to time zone crossing. See the DAL6225 flight status page for this flight to view local times or setup timezone preferences in your user account.

Time Position Orientation Groundspeed Altitude Reporting Facility
EDT Latitude Longitude Course Direction KTS MPH feet Rate Location/Type
08:41AM 43.1022 -89.3081 91° East 205 236 3,000  Level Chicago Center
08:42AM 43.1011 -89.2097 91° East 258 297 5,000 2,460 Climbing Chicago Center
08:43AM 43.1042 -89.0925 88° East 300 345 8,100 2,760 Climbing Chicago Center
08:44AM 43.1069 -88.9700 88° East 321 369 10,800 2,280 Climbing Chicago Center
08:45AM 43.1081 -88.8372 89° East 348 400 12,900 1,980 Climbing Chicago Center
08:46AM 43.1100 -88.6933 89° East 376 433 14,900 2,100 Climbing Chicago Center
08:47AM 43.1125 -88.5158 89° East 401 461 17,300 2,160 Climbing Chicago Center
08:48AM 43.1139 -88.3572 89° East 416 479 19,400 1,980 Climbing Chicago Center
08:49AM 43.1197 -88.1964 87° East 424 488 21,400 1,860 Climbing Chicago Center
08:50AM 43.1283 -88.0339 86° East 428 493 23,300 1,740 Climbing Chicago Center
08:51AM 43.1347 -87.8683 87° East 437 503 25,100 1,860 Climbing Chicago Center
08:52AM 43.1442 -87.6753 86° East 437 503 27,200 1,740 Climbing Chicago Center
08:53AM 43.1511 -87.5092 87° East 439 505 28,700 1,260 Climbing Chicago Center
08:54AM 43.1572 -87.3581 87° East 441 507 29,800 1,080 Climbing Chicago Center
08:55AM 43.1650 -87.1883 86° East 447 514 31,000 1,200 Climbing Chicago Center
08:56AM 43.1731 -86.9836 87° East 449 517 32,400 1,140 Climbing Chicago Center
08:58AM 43.1794 -86.8100 87° East 455 524 33,400 960 Climbing Chicago Center
08:59AM 43.1867 -86.6353 87° East 459 528 34,400 780 Climbing Chicago Center
09:00AM 43.1936 -86.4586 87° East 463 533 35,000 240 Climbing Chicago Center
09:01AM 43.1989 -86.2817 88° East 463 533 35,000  Level Chicago Center
09:02AM 43.2042 -86.1094 88° East 453 521 35,000  Level Chicago Center
09:03AM 43.2089 -85.9361 88° East 447 514 35,000  Level Chicago Center
09:04AM 43.2133 -85.7658 88° East 441 507 35,000  Level Chicago Center
09:05AM 43.2178 -85.5967 88° East 440 506 35,000  Level Chicago Center
09:06AM 43.2233 -85.3919 88° East 446 513 35,000  Level Chicago Center
09:06AM 43.2239 -85.3219 89° East 422 486 35,000  Level Cleveland Center
09:07AM 43.2286 -85.1511 88° East 433 498 35,000  Level Cleveland Center
09:08AM 43.2311 -84.9803 89° East 440 506 35,000  Level Cleveland Center
09:09AM 43.2333 -84.8036 89° East 445 512 35,000  Level Cleveland Center
09:10AM 43.2378 -84.6272 88° East 457 526 35,000  Level Cleveland Center
09:11AM 43.2397 -84.4478 89° East 462 532 35,000  Level Cleveland Center
09:12AM 43.2436 -84.2656 88° East 467 537 35,000  Level Cleveland Center
09:13AM 43.2447 -84.0889 89° East 467 537 35,000  Level Cleveland Center
09:14AM 43.2481 -83.9122 88° East 467 537 35,000  Level Cleveland Center
09:15AM 43.2489 -83.7328 90° East 467 537 35,000  Level Cleveland Center
09:16AM 43.2494 -83.5503 90° East 467 537 35,000  Level Cleveland Center
09:17AM 43.2517 -83.3736 89° East 473 544 35,000  Level Cleveland Center
09:18AM 43.2517 -83.1969 90° East 463 533 35,000  Level Cleveland Center
09:19AM 43.2556 -83.0233 88° East 456 525 35,000  Level Cleveland Center
09:20AM 43.2528 -82.8522 91° East 451 519 35,000  Level Cleveland Center
09:21AM 43.2519 -82.6781 90° East 451 519 35,000  Level Cleveland Center
09:22AM 43.2500 -82.6167 92° East 460 529 35,000  Level Toronto Center
09:23AM 43.2333 -82.4167 96° East 460 529 35,000  Level Toronto Center
09:24AM 43.2167 -82.2333 97° East 460 529 35,000  Level Toronto Center
09:25AM 43.2000 -82.0500 97° East 460 529 35,000  Level Toronto Center
09:26AM 43.2000 -81.9000 90° East 460 529 35,000  Level Toronto Center
09:27AM 43.1833 -81.7333 98° East 460 529 35,000  Level Toronto Center
09:28AM 43.1667 -81.5500 97° East 460 529 35,000  Level Toronto Center
09:29AM 43.1500 -81.3667 97° East 460 529 35,000  Level Toronto Center
09:30AM 43.1333 -81.2167 99° East 450 518 35,000  Level Toronto Center
09:31AM 43.1167 -81.0333 97° East 450 518 35,000  Level Toronto Center
09:32AM 43.1000 -80.8667 98° East 450 518 35,000  Level Toronto Center
09:33AM 43.1000 -80.6833 90° East 450 518 35,000  Level Toronto Center
09:34AM 43.1000 -80.5167 90° East 450 518 35,000  Level Toronto Center
09:35AM 43.0833 -80.3333 97° East 460 529 35,000  Level Toronto Center
09:36AM 43.0667 -80.1833 99° East 460 529 35,000  Level Toronto Center
09:37AM 43.0500 -80.0000 97° East 460 529 35,000  Level Toronto Center
09:38AM 43.0333 -79.8167 97° East 470 541 35,000  Level Toronto Center
09:39AM 43.0167 -79.6500 98° East 470 541 35,000  Level Toronto Center
09:40AM 43.0000 -79.4667 97° East 460 529 35,000  Level Toronto Center
09:41AM 42.9833 -79.2833 97° East 460 529 35,000  Level Toronto Center
09:42AM 42.9667 -79.1333 99° East 460 529 35,000  Level Toronto Center
09:43AM 42.9500 -78.9500 97° East 470 541 35,000  Level Toronto Center
09:44AM 42.9333 -78.7667 97° East 470 541 35,000  Level Toronto Center
09:44AM 42.9347 -78.7031 88° East 462 532 35,000  Level Cleveland Center
09:45AM 42.9172 -78.5250 98° East 462 532 35,000  Level Cleveland Center
09:46AM 42.8992 -78.3500 98° East 462 532 35,000  Level Cleveland Center
09:47AM 42.8811 -78.1747 98° East 462 532 35,000  Level Cleveland Center
09:48AM 42.8653 -78.0225 98° East 462 532 35,000  Level Cleveland Center
09:49AM 42.8489 -77.8475 97° East 462 532 35,000  Level Cleveland Center
09:50AM 42.8281 -77.6728 99° East 462 532 35,000  Level Cleveland Center
09:51AM 42.8047 -77.5042 101° East 462 532 35,000  Level Cleveland Center
09:52AM 42.7792 -77.3300 101° East 462 532 35,000  Level Cleveland Center
09:54AM 42.7433 -77.0803 101° East 474 545 35,000  Level Boston Center
09:55AM 42.7189 -76.9089 101° East 469 540 35,000  Level Boston Center
09:56AM 42.6944 -76.7375 101° East 464 534 35,000  Level Boston Center
09:57AM 42.6672 -76.5689 102° East 464 534 35,000 -120 Level Boston Center
09:58AM 42.6442 -76.3950 100° East 464 534 34,800 -660 Descending Boston Center
09:59AM 42.6186 -76.2269 102° East 464 534 33,700 -1,080 Descending Boston Center
10:00AM 42.5947 -76.0647 101° East 452 520 32,700 -1,140 Descending Boston Center
10:01AM 42.5653 -75.8767 102° East 452 520 31,500 -1,140 Descending Boston Center
10:02AM 42.5389 -75.7089 102° East 452 520 30,500 -1,020 Descending Boston Center
10:03AM 42.5125 -75.5386 102° East 457 526 29,500 -1,020 Descending Boston Center
10:04AM 42.4875 -75.3711 101° East 457 526 28,500 -1,020 Descending Boston Center
10:05AM 42.4542 -75.2119 106° East 450 518 27,500 -1,020 Descending Boston Center
10:06AM 42.4033 -75.0664 115° Southeast 440 506 26,500 -1,020 Descending Boston Center
10:07AM 42.3461 -74.9206 118° Southeast 435 501 25,500 -1,020 Descending Boston Center
10:08AM 42.2931 -74.7753 116° Southeast 435 501 24,500 -1,080 Descending Boston Center
10:09AM 42.2417 -74.6303 116° Southeast 430 495 23,400 -1,740 Descending Boston Center
10:10AM 42.1900 -74.4942 117° Southeast 424 488 21,100 -2,340 Descending Boston Center
10:11AM 42.1403 -74.3581 116° Southeast 404 465 18,800 -1,620 Descending Boston Center
10:12AM 42.0903 -74.2361 119° Southeast 390 449 18,000 -420 Descending Boston Center
10:13AM 42.0039 -74.1500 143° Southeast 378 435 18,000  Level Boston Center
10:14AM 41.8758 -74.0794 158° South 402 463 18,000 -420 Level Boston Center
10:15AM 41.7786 -74.0297 159° South 415 478 17,100 -1,560 Descending Boston Center
10:16AM 41.6689 -73.9714 158° South 404 465 14,900 -2,160 Descending Boston Center
10:17AM 41.5500 -73.9000 156° South 367 422 12,300 -1,920 Descending New York TRACON
10:18AM 41.4667 -73.8667 163° South 327 376 10,700 -1,500 Descending New York TRACON
10:19AM 41.3833 -73.8167 156° South 280 322 9,400 -1,020 Descending New York TRACON
10:20AM 41.3167 -73.7667 151° Southeast 283 326 8,700 -1,260 Descending New York TRACON
10:21AM 41.2500 -73.7167 151° Southeast 272 313 6,900 -1,800 Descending New York TRACON
10:22AM 41.2000 -73.6667 143° Southeast 259 298 5,200 -1,440 Descending New York TRACON
10:23AM 41.1333 -73.6167 151° Southeast 255 293 4,100 -600 Descending New York TRACON
10:24AM 41.0667 -73.6333 191° South 265 305 4,000  Descending New York TRACON
10:25AM 41.0167 -73.6833 217° Southwest 262 302 4,100  Climbing New York TRACON
10:26AM 40.9833 -73.7500 236° Southwest 211 243 4,000  Descending New York TRACON
10:27AM 40.9333 -73.8000 217° Southwest 191 220 4,100  Climbing New York TRACON
10:28AM 40.9000 -73.8667 237° Southwest 198 228 4,100  Level New York TRACON
10:29AM 40.8667 -73.9167 229° Southwest 193 222 4,100  Level New York TRACON
10:30AM 40.8333 -73.9500 217° Southwest 189 217 4,100  Level New York TRACON
10:31AM 40.7833 -74.0000 217° Southwest 190 219 4,100  Level New York TRACON
10:32AM 40.7333 -74.0333 207° Southwest 183 211 4,100  Level New York TRACON
10:33AM 40.6833 -74.0500 194° South 185 213 4,100  Level New York TRACON
10:34AM 40.6500 -74.0833 217° Southwest 187 215 4,100 -480 Level New York TRACON
10:35AM 40.6167 -74.0500 143° Southeast 172 198 3,200 -540 Descending New York TRACON
10:36AM 40.6333 -74.0000 66° East 171 197 3,100 -120 Descending New York TRACON